Time;durP1;ratioP1;P1;durP2;ratioP2;P2;SDS_P1;SDS_P2;PMS_P1;PMS_P2;Temp;Humidity;BMP_temperature;BMP_pressure;BME280_temperature;BME280_humidity;BME280_pressure;Samples;Min_cycle;Max_cycle;Signal;HPM_P1;HPM_P2
2023/07/10 00:00:22;;;;;;;7.53;3.30;;;;;;;22.67;100.00;98884.53;5083847;28;20028;-74
2023/07/10 00:02:49;;;;;;;7.70;3.28;;;;;;;22.54;100.00;98880.44;5086623;28;20031;-75
2023/07/10 00:05:16;;;;;;;7.93;3.42;;;;;;;22.55;100.00;98879.31;5094986;28;20058;-75
2023/07/10 00:07:42;;;;;;;5.40;2.85;;;;;;;22.57;100.00;98879.03;5079145;28;20020;-74
2023/07/10 00:10:13;;;;;;;10.02;3.55;;;;;;;22.53;100.00;98874.09;5048627;28;20042;-76
2023/07/10 00:12:39;;;;;;;4.80;3.00;;;;;;;22.49;100.00;98873.00;5070619;28;20027;-75
2023/07/10 00:15:12;;;;;;;6.32;3.63;;;;;;;22.53;100.00;98884.28;5074039;28;20035;-74
2023/07/10 00:17:38;;;;;;;7.55;3.40;;;;;;;22.38;100.00;98876.88;5083681;28;20481;-75
2023/07/10 00:20:24;;;;;;;7.47;3.33;;;;;;;22.25;100.00;98889.31;5061369;28;20120;-73
2023/07/10 00:22:50;;;;;;;7.80;3.38;;;;;;;22.10;100.00;98892.03;5070758;28;20031;-75
2023/07/10 00:25:17;;;;;;;9.05;3.47;;;;;;;21.92;100.00;98901.69;5061006;28;20054;-76
2023/07/10 00:27:44;;;;;;;11.70;3.30;;;;;;;21.85;100.00;98882.69;5074576;28;20086;-75
2023/07/10 00:30:20;;;;;;;9.15;3.80;;;;;;;21.79;100.00;98881.03;5083246;28;20480;-75
2023/07/10 00:32:47;;;;;;;9.00;3.25;;;;;;;21.87;100.00;98893.41;5063497;28;20073;-75
2023/07/10 00:35:17;;;;;;;12.55;3.70;;;;;;;21.74;100.00;98888.47;5059407;28;20024;-75
2023/07/10 00:37:47;;;;;;;10.00;3.53;;;;;;;21.67;100.00;98906.09;5076773;28;20111;-73
2023/07/10 00:40:22;;;;;;;8.50;3.40;;;;;;;21.56;100.00;98890.66;5079305;28;20480;-75
2023/07/10 00:42:57;;;;;;;7.25;3.35;;;;;;;21.40;100.00;98877.94;5068071;28;20025;-75
2023/07/10 00:45:22;;;;;;;8.65;3.72;;;;;;;21.44;100.00;98887.34;5051476;28;20028;-75
2023/07/10 00:48:30;;;;;;;6.97;3.72;;;;;;;21.52;100.00;98886.78;5082410;28;20046;-74
2023/07/10 00:50:58;;;;;;;9.40;3.50;;;;;;;21.55;100.00;98891.75;5044034;28;20102;-74
2023/07/10 00:53:28;;;;;;;7.90;3.58;;;;;;;21.51;100.00;98885.16;5077729;28;20028;-75
2023/07/10 00:55:56;;;;;;;7.57;3.17;;;;;;;21.54;100.00;98895.59;5066176;28;20374;-73
2023/07/10 00:58:24;;;;;;;11.38;3.50;;;;;;;21.49;100.00;98892.03;5065394;28;20079;-76
2023/07/10 01:01:03;;;;;;;13.27;3.42;;;;;;;21.43;100.00;98893.91;5066645;28;20071;-76
2023/07/10 01:03:29;;;;;;;6.68;3.08;;;;;;;21.44;100.00;98909.34;5075848;28;20024;-73
2023/07/10 01:05:57;;;;;;;11.02;3.15;;;;;;;21.42;100.00;98897.78;5053915;28;20110;-74
2023/07/10 01:08:23;;;;;;;8.25;3.40;;;;;;;21.48;100.00;98913.19;5072142;28;20024;-73
2023/07/10 01:10:49;;;;;;;8.07;3.53;;;;;;;21.39;100.00;98934.94;5055052;28;20075;-74
2023/07/10 01:13:14;;;;;;;6.63;3.35;;;;;;;21.38;100.00;98946.22;5068881;28;20029;-72
2023/07/10 01:15:40;;;;;;;9.18;3.40;;;;;;;21.32;100.00;98939.00;5070078;28;20032;-72
2023/07/10 01:18:09;;;;;;;12.02;3.67;;;;;;;21.29;100.00;98943.13;5061500;28;20059;-73
2023/07/10 01:20:34;;;;;;;8.38;3.50;;;;;;;21.37;100.00;98952.78;5072275;28;20024;-74
2023/07/10 01:23:01;;;;;;;7.63;3.65;;;;;;;21.27;100.00;98944.50;5086123;28;20385;-75
2023/07/10 01:25:31;;;;;;;7.95;3.70;;;;;;;21.22;100.00;98937.88;5051590;28;20493;-75
2023/07/10 01:27:56;;;;;;;12.45;3.83;;;;;;;21.24;100.00;98957.69;5066157;28;20028;-75
2023/07/10 01:30:30;;;;;;;6.65;3.30;;;;;;;21.28;100.00;98970.94;5070732;28;20052;-75
2023/07/10 01:32:56;;;;;;;6.07;3.38;;;;;;;21.32;100.00;98961.84;5076143;28;20403;-74
2023/07/10 01:35:26;;;;;;;9.60;3.50;;;;;;;21.30;100.00;98966.81;5053046;28;20062;-74
2023/07/10 01:37:51;;;;;;;8.88;3.40;;;;;;;21.35;100.00;98965.97;5080457;28;20030;-73
2023/07/10 01:40:22;;;;;;;7.05;3.13;;;;;;;21.35;100.00;98964.06;5054950;28;20044;-74
2023/07/10 01:42:47;;;;;;;7.10;3.53;;;;;;;21.35;100.00;98968.72;5047986;28;20031;-74
2023/07/10 01:45:13;;;;;;;8.35;3.70;;;;;;;21.37;100.00;98972.06;5067226;28;20024;-72
2023/07/10 01:47:40;;;;;;;8.93;3.33;;;;;;;21.24;100.00;98954.09;5077287;28;20062;-75
2023/07/10 01:50:06;;;;;;;7.30;3.30;;;;;;;21.16;100.00;98944.44;5058781;28;20123;-75
2023/07/10 01:52:32;;;;;;;6.40;3.53;;;;;;;21.09;100.00;98954.91;5052313;28;20086;-75
2023/07/10 01:54:57;;;;;;;9.32;3.63;;;;;;;21.04;100.00;98948.53;5053229;28;20028;-75
2023/07/10 01:57:23;;;;;;;8.40;3.65;;;;;;;21.03;100.00;98944.94;5065382;28;20107;-75
2023/07/10 01:59:52;;;;;;;10.57;3.65;;;;;;;20.98;100.00;98932.00;5070691;28;20020;-75
2023/07/10 02:02:18;;;;;;;7.70;3.47;;;;;;;20.99;100.00;98921.84;5074939;28;20040;-75
2023/07/10 02:04:43;;;;;;;14.27;3.80;;;;;;;20.99;100.00;98938.34;5065172;28;20032;-75
2023/07/10 02:07:08;;;;;;;6.55;3.75;;;;;;;20.93;100.00;98939.41;5056736;28;20033;-73
2023/07/10 02:09:34;;;;;;;8.57;3.22;;;;;;;20.85;100.00;98931.66;5071831;28;20016;-76
2023/07/10 02:12:00;;;;;;;6.47;3.55;;;;;;;20.66;100.00;98934.88;5110646;28;20028;-74
2023/07/10 02:14:26;;;;;;;9.55;4.22;;;;;;;20.67;100.00;98943.94;5089902;28;20048;-76
2023/07/10 02:16:52;;;;;;;8.38;4.03;;;;;;;20.59;100.00;98945.25;5083845;28;20037;-74
2023/07/10 02:19:20;;;;;;;7.40;3.58;;;;;;;20.65;100.00;98943.41;5095254;28;20115;-76
2023/07/10 02:21:46;;;;;;;11.07;3.38;;;;;;;20.66;100.00;98950.53;5095525;28;20099;-76
2023/07/10 02:24:12;;;;;;;9.15;3.72;;;;;;;20.58;100.00;98932.63;5046460;28;20057;-75
2023/07/10 02:26:37;;;;;;;8.88;3.58;;;;;;;20.45;100.00;98922.06;5050167;28;20031;-75
2023/07/10 02:29:02;;;;;;;9.80;4.20;;;;;;;20.47;100.00;98931.69;5078945;28;20119;-75
2023/07/10 02:31:28;;;;;;;7.82;3.70;;;;;;;20.53;100.00;98927.06;5073166;28;20024;-75
2023/07/10 02:33:54;;;;;;;10.32;4.18;;;;;;;20.55;100.00;98919.41;5066344;28;20031;-75
2023/07/10 02:36:21;;;;;;;8.88;4.40;;;;;;;20.53;100.00;98911.38;5078594;28;20107;-75
2023/07/10 02:38:46;;;;;;;8.65;4.25;;;;;;;20.54;100.00;98910.34;5053655;28;20036;-75
2023/07/10 02:41:11;;;;;;;7.38;3.63;;;;;;;20.57;100.00;98919.97;5065630;28;20028;-73
2023/07/10 02:43:37;;;;;;;11.15;3.90;;;;;;;20.67;100.00;98930.19;5064307;28;20063;-73
2023/07/10 02:46:02;;;;;;;9.73;4.00;;;;;;;20.66;100.00;98940.38;5070499;28;20379;-75
2023/07/10 02:48:27;;;;;;;7.43;3.65;;;;;;;20.68;100.00;98946.44;5061796;28;20036;-75
2023/07/10 02:50:53;;;;;;;6.40;3.70;;;;;;;20.70;100.00;98955.25;5077239;28;20110;-76
2023/07/10 02:53:20;;;;;;;6.32;3.20;;;;;;;20.63;100.00;98956.56;5064426;28;20134;-74
2023/07/10 02:55:45;;;;;;;7.30;3.45;;;;;;;20.64;100.00;98961.78;5057558;28;20082;-72
2023/07/10 02:58:11;;;;;;;8.43;4.18;;;;;;;20.54;100.00;98958.97;5079343;28;20024;-75
2023/07/10 03:00:36;;;;;;;7.95;3.78;;;;;;;20.57;100.00;98959.28;5070250;28;20561;-76
2023/07/10 03:03:02;;;;;;;9.43;3.70;;;;;;;20.61;100.00;98976.06;5062676;28;20028;-74
2023/07/10 03:05:27;;;;;;;6.85;3.65;;;;;;;20.60;100.00;98973.59;5059419;28;20029;-74
2023/07/10 03:07:53;;;;;;;9.38;4.22;;;;;;;20.72;100.00;98972.31;5054860;28;20452;-76
2023/07/10 03:10:19;;;;;;;6.90;4.07;;;;;;;20.79;100.00;98972.88;5074271;28;20024;-73
2023/07/10 03:12:45;;;;;;;12.13;3.42;;;;;;;20.92;100.00;98979.00;5074630;28;20107;-75
2023/07/10 03:15:11;;;;;;;8.77;3.40;;;;;;;20.87;100.00;98968.81;5066785;28;20116;-74
2023/07/10 03:17:36;;;;;;;8.35;3.92;;;;;;;20.82;100.00;98970.69;5059400;28;20075;-74
2023/07/10 03:20:03;;;;;;;8.88;3.95;;;;;;;20.83;100.00;98984.19;5081286;28;20106;-74
2023/07/10 03:22:29;;;;;;;9.88;4.07;;;;;;;20.87;100.00;98971.56;5057201;28;20032;-72
2023/07/10 03:24:55;;;;;;;12.30;4.45;;;;;;;20.91;100.00;98960.88;5048935;28;20025;-74
2023/07/10 03:27:20;;;;;;;8.00;3.97;;;;;;;20.90;100.00;98973.75;5068544;28;20097;-75
2023/07/10 03:29:46;;;;;;;9.05;3.67;;;;;;;20.62;100.00;98974.13;5085705;28;20036;-76
2023/07/10 03:32:15;;;;;;;9.02;4.07;;;;;;;20.46;100.00;98993.28;5085622;28;20025;-79
2023/07/10 03:34:50;;;;;;;15.32;4.25;;;;;;;20.41;100.00;98984.97;5087172;28;20051;-77
2023/07/10 03:37:15;;;;;;;17.10;4.07;;;;;;;20.42;100.00;98991.31;5096710;28;20024;-77
2023/07/10 03:39:41;;;;;;;7.00;3.67;;;;;;;20.39;100.00;99006.41;5072298;28;20118;-76
2023/07/10 03:42:06;;;;;;;11.65;4.28;;;;;;;20.35;100.00;98997.81;5071586;28;20028;-76
2023/07/10 03:44:31;;;;;;;9.23;4.28;;;;;;;20.31;100.00;98999.47;5067026;28;20107;-76
2023/07/10 03:46:57;;;;;;;8.18;3.65;;;;;;;20.36;100.00;99026.16;5080013;28;20032;-75
2023/07/10 03:49:22;;;;;;;8.23;4.10;;;;;;;20.43;100.00;99048.72;5083687;28;20667;-76
2023/07/10 03:51:48;;;;;;;10.05;3.80;;;;;;;20.39;100.00;99044.03;5081872;28;20024;-76
2023/07/10 03:54:14;;;;;;;10.75;4.40;;;;;;;20.35;100.00;99046.47;5072809;28;20025;-76
2023/07/10 03:56:39;;;;;;;9.52;4.10;;;;;;;20.40;100.00;99056.69;5055005;28;20029;-76
2023/07/10 03:59:07;;;;;;;7.05;4.07;;;;;;;20.44;100.00;99069.66;5055957;28;20452;-77
2023/07/10 04:01:33;;;;;;;7.90;3.85;;;;;;;20.55;100.00;99065.91;5065319;28;20430;-76
2023/07/10 04:03:58;;;;;;;10.55;4.28;;;;;;;20.60;100.00;99070.63;5085990;28;20028;-76
2023/07/10 04:06:23;;;;;;;12.52;3.65;;;;;;;20.62;100.00;99051.97;5077224;28;20020;-76
2023/07/10 04:08:49;;;;;;;13.55;4.00;;;;;;;20.72;100.00;99059.44;5075751;28;20028;-77
2023/07/10 04:11:20;;;;;;;9.80;3.90;;;;;;;20.67;100.00;99043.75;5058141;28;20062;-77
2023/07/10 04:13:46;;;;;;;10.95;3.63;;;;;;;20.76;100.00;99066.91;5075986;28;20401;-76
2023/07/10 04:16:22;;;;;;;10.38;3.80;;;;;;;20.87;100.00;99072.47;5056902;28;20029;-76
2023/07/10 04:18:48;;;;;;;8.30;4.00;;;;;;;20.96;100.00;99057.97;5072739;28;20066;-75
2023/07/10 04:21:21;;;;;;;8.27;3.90;;;;;;;21.10;100.00;99071.25;5068211;28;20021;-75
2023/07/10 04:23:47;;;;;;;6.00;3.45;;;;;;;21.19;100.00;99072.41;5095268;22;20054;-73
2023/07/10 04:26:21;;;;;;;11.60;4.03;;;;;;;21.23;100.00;99068.88;5013147;28;20124;-67
2023/07/10 04:28:49;;;;;;;8.27;4.20;;;;;;;21.42;100.00;99071.19;5009719;28;20025;-69
2023/07/10 04:31:16;;;;;;;10.88;3.85;;;;;;;21.59;100.00;99073.75;5012762;28;20068;-73
2023/07/10 04:33:42;;;;;;;12.60;4.70;;;;;;;21.77;100.00;99075.19;5012976;28;20028;-67
2023/07/10 04:36:07;;;;;;;9.40;4.30;;;;;;;21.80;100.00;99069.16;5040097;28;20035;-67
2023/07/10 04:38:33;;;;;;;11.07;4.85;;;;;;;21.97;100.00;99075.25;5022262;28;20038;-67
2023/07/10 04:41:01;;;;;;;8.85;4.65;;;;;;;21.89;100.00;99086.81;5017544;28;20538;-66
2023/07/10 04:43:28;;;;;;;10.90;4.03;;;;;;;21.71;100.00;99084.53;5011393;28;20068;-66
2023/07/10 04:45:55;;;;;;;6.78;4.20;;;;;;;21.45;100.00;99101.75;5014615;28;20037;-66
2023/07/10 04:48:21;;;;;;;7.88;3.88;;;;;;;21.32;100.00;99102.19;5015062;28;20043;-67
2023/07/10 04:50:48;;;;;;;6.53;4.30;;;;;;;21.27;100.00;99112.34;5007652;28;20029;-67
2023/07/10 04:53:14;;;;;;;9.73;3.95;;;;;;;21.16;100.00;99097.72;5009713;28;20030;-68
2023/07/10 04:55:40;;;;;;;8.57;3.90;;;;;;;21.21;100.00;99098.56;5014776;28;20026;-67
2023/07/10 04:58:06;;;;;;;7.32;3.67;;;;;;;21.13;100.00;99087.25;5019352;28;20040;-67
2023/07/10 05:00:31;;;;;;;12.48;4.43;;;;;;;21.11;100.00;99073.72;5014392;28;20472;-67
2023/07/10 05:02:56;;;;;;;7.68;4.32;;;;;;;21.27;100.00;99088.41;5015450;28;20034;-67
2023/07/10 05:05:21;;;;;;;6.30;4.07;;;;;;;21.35;100.00;99078.81;5023172;28;20056;-67
2023/07/10 05:07:47;;;;;;;8.32;4.65;;;;;;;21.44;100.00;99088.28;5015858;28;20054;-67
2023/07/10 05:10:12;;;;;;;9.82;4.30;;;;;;;21.50;100.00;99105.63;5009627;28;20026;-67
2023/07/10 05:12:37;;;;;;;8.02;4.32;;;;;;;21.74;100.00;99098.59;5011465;28;20026;-67
2023/07/10 05:15:03;;;;;;;8.93;4.25;;;;;;;21.92;100.00;99086.25;5016482;28;20033;-67
2023/07/10 05:17:28;;;;;;;9.18;4.15;;;;;;;22.12;100.00;99071.72;5008240;28;20122;-69
2023/07/10 05:19:54;;;;;;;9.00;4.57;;;;;;;22.33;100.00;99069.84;5010987;28;20043;-69
2023/07/10 05:22:19;;;;;;;9.85;4.60;;;;;;;22.59;100.00;99069.88;5011190;28;20029;-70
2023/07/10 05:24:44;;;;;;;11.35;5.10;;;;;;;22.85;100.00;99077.03;5024368;28;20136;-75
2023/07/10 05:27:10;;;;;;;10.55;4.63;;;;;;;23.18;100.00;99083.06;5031694;28;20459;-71
2023/07/10 05:29:35;;;;;;;10.13;4.50;;;;;;;23.28;100.00;99093.25;5014289;28;20044;-72
2023/07/10 05:32:00;;;;;;;11.65;3.90;;;;;;;23.25;100.00;99105.69;5021396;28;20030;-77
2023/07/10 05:34:26;;;;;;;12.20;4.90;;;;;;;23.24;100.00;99117.84;5039311;28;20032;-75
2023/07/10 05:36:52;;;;;;;8.80;4.18;;;;;;;23.38;100.00;99124.44;5016825;28;20061;-78
2023/07/10 05:39:17;;;;;;;8.45;4.32;;;;;;;23.43;100.00;99125.53;5017620;28;20029;-77
2023/07/10 05:41:42;;;;;;;8.07;3.97;;;;;;;23.59;100.00;99118.84;5015830;28;20030;-78
2023/07/10 05:44:07;;;;;;;10.23;4.78;;;;;;;24.12;100.00;99140.50;5037707;28;20030;-77
2023/07/10 05:46:33;;;;;;;11.95;4.68;;;;;;;24.11;100.00;99139.69;5029464;28;20530;-77
2023/07/10 05:48:58;;;;;;;8.75;4.43;;;;;;;24.10;100.00;99138.00;5017264;28;20040;-77
2023/07/10 05:51:24;;;;;;;9.23;4.70;;;;;;;24.03;100.00;99120.94;5015954;28;20026;-77
2023/07/10 05:53:49;;;;;;;9.05;4.10;;;;;;;24.36;100.00;99132.34;5012693;28;20109;-76
2023/07/10 05:56:14;;;;;;;19.52;5.30;;;;;;;24.56;100.00;99140.53;5012225;28;20034;-81
2023/07/10 05:58:40;;;;;;;21.65;5.25;;;;;;;24.61;100.00;99098.19;5014243;28;20053;-81
2023/07/10 06:01:06;;;;;;;9.82;4.82;;;;;;;25.34;100.00;99136.88;5010949;28;20029;-77
2023/07/10 06:03:33;;;;;;;11.60;5.07;;;;;;;25.64;100.00;99136.81;5011439;28;20041;-80
2023/07/10 06:06:05;;;;;;;13.93;4.63;;;;;;;25.75;100.00;99124.50;5016366;28;20099;-75
2023/07/10 06:08:31;;;;;;;12.38;4.82;;;;;;;25.96;100.00;99130.63;5032088;28;20029;-72
2023/07/10 06:10:57;;;;;;;13.50;4.57;;;;;;;26.17;100.00;99123.72;5024698;28;20018;-80
2023/07/10 06:13:23;;;;;;;8.00;4.60;;;;;;;26.50;100.00;99137.66;5008245;28;20083;-74
2023/07/10 06:15:51;;;;;;;14.18;4.10;;;;;;;27.10;100.00;99142.56;5014491;28;20040;-75
2023/07/10 06:18:18;;;;;;;8.77;4.20;;;;;;;27.68;100.00;99144.84;5043065;28;20018;-76
2023/07/10 06:20:49;;;;;;;10.63;3.67;;;;;;;27.94;100.00;99161.88;5034372;28;20060;-76
2023/07/10 06:23:14;;;;;;;5.78;3.63;;;;;;;28.38;100.00;99168.72;5026286;28;20056;-76
2023/07/10 06:25:44;;;;;;;8.35;3.90;;;;;;;28.44;100.00;99163.88;5028077;28;20021;-77
2023/07/10 06:28:09;;;;;;;12.80;4.10;;;;;;;28.50;100.00;99159.84;5016464;28;20079;-76
2023/07/10 06:30:39;;;;;;;7.45;3.53;;;;;;;28.73;100.00;99145.97;5036931;28;20022;-74
2023/07/10 06:33:04;;;;;;;6.57;3.67;;;;;;;28.96;100.00;99150.41;5024826;28;20117;-76
2023/07/10 06:35:29;;;;;;;7.45;3.83;;;;;;;29.32;100.00;99143.94;5011300;28;20108;-74
2023/07/10 06:37:55;;;;;;;10.25;3.95;;;;;;;29.54;100.00;99147.81;5015443;28;20029;-78
2023/07/10 06:40:20;;;;;;;6.97;3.83;;;;;;;29.63;100.00;99157.03;5029811;28;20024;-76
2023/07/10 06:42:45;;;;;;;6.93;3.80;;;;;;;30.35;100.00;99139.91;5016764;28;20033;-78
2023/07/10 06:45:11;;;;;;;9.55;4.25;;;;;;;30.10;100.00;99124.75;5033707;28;20040;-76
2023/07/10 06:47:42;;;;;;;4.80;3.53;;;;;;;30.27;100.00;99129.56;5020180;28;20021;-78
2023/07/10 06:50:09;;;;;;;6.70;3.30;;;;;;;31.08;100.00;99116.09;5020661;28;20022;-79
2023/07/10 06:52:38;;;;;;;9.13;3.30;;;;;;;31.69;100.00;99111.13;5024463;28;20099;-76
2023/07/10 06:55:04;;;;;;;;;;;;;;;33.58;87.86;99116.72;5024130;28;21738;-70
2023/07/10 06:57:29;;;;;;;7.40;3.38;;;;;;;34.85;74.80;99109.09;5013401;28;19917;-70
2023/07/10 06:59:54;;;;;;;7.80;3.50;;;;;;;36.26;67.07;99108.69;5013365;28;20044;-70
2023/07/10 07:02:19;;;;;;;10.73;5.50;;;;;;;37.34;62.20;99106.13;5025444;28;20070;-70
2023/07/10 07:04:45;;;;;;;6.38;2.83;;;;;;;38.35;57.45;99117.88;5015936;28;20033;-71
2023/07/10 07:07:10;;;;;;;8.23;3.13;;;;;;;38.04;56.10;99117.00;5020297;28;20064;-70
2023/07/10 07:09:35;;;;;;;6.90;2.70;;;;;;;36.77;59.03;99115.09;5018674;28;20285;-70
2023/07/10 07:12:01;;;;;;;4.82;2.55;;;;;;;37.48;57.20;99112.81;5011422;28;20034;-70
2023/07/10 07:14:26;;;;;;;7.38;2.85;;;;;;;35.32;61.23;99123.28;5030021;28;20021;-77
2023/07/10 07:16:53;;;;;;;9.30;3.10;;;;;;;34.93;64.90;99129.78;5037709;28;20361;-77
2023/07/10 07:19:18;;;;;;;4.78;2.97;;;;;;;35.85;63.74;99128.66;5015896;28;20526;-81
2023/07/10 07:21:44;;;;;;;6.38;2.97;;;;;;;35.44;62.90;99119.53;5015092;28;20034;-74
2023/07/10 07:24:09;;;;;;;4.70;2.70;;;;;;;35.55;62.28;99123.47;5019318;28;20391;-76
2023/07/10 07:26:35;;;;;;;7.40;2.80;;;;;;;34.02;68.00;99139.41;5031909;28;20052;-77
2023/07/10 07:29:01;;;;;;;4.45;2.85;;;;;;;34.96;65.82;99135.50;5038228;28;20093;-75
2023/07/10 07:31:26;;;;;;;7.10;3.00;;;;;;;33.29;72.71;99135.34;5027910;28;20517;-76
2023/07/10 07:33:52;;;;;;;5.75;3.35;;;;;;;33.32;76.04;99159.88;5038105;28;20122;-73
2023/07/10 07:36:17;;;;;;;7.38;2.90;;;;;;;35.25;70.26;99147.56;5014281;28;20034;-77
2023/07/10 07:38:42;;;;;;;7.45;2.92;;;;;;;36.77;62.83;99153.75;5015711;28;20025;-76
2023/07/10 07:41:08;;;;;;;4.75;2.97;;;;;;;38.23;57.98;99174.63;5014625;28;20491;-77
2023/07/10 07:43:34;;;;;;;28.88;13.10;;;;;;;38.01;56.51;99167.81;5030701;28;20025;-76
2023/07/10 07:45:59;;;;;;;10.35;4.70;;;;;;;38.31;55.04;99165.06;5014284;28;20092;-76
2023/07/10 07:48:25;;;;;;;19.40;8.95;;;;;;;39.27;52.49;99176.06;5014787;28;20038;-76
2023/07/10 07:50:54;;;;;;;10.30;4.20;;;;;;;40.64;48.89;99176.03;5019942;28;20026;-75
2023/07/10 07:53:20;;;;;;;5.50;2.80;;;;;;;41.26;48.11;99183.66;5053035;28;20075;-76
2023/07/10 07:55:45;;;;;;;7.20;2.80;;;;;;;40.08;48.29;99169.56;5020988;28;20030;-76
2023/07/10 07:58:10;;;;;;;5.83;2.73;;;;;;;39.07;51.24;99176.25;5011598;28;20292;-76
2023/07/10 08:00:35;;;;;;;3.90;2.83;;;;;;;37.15;53.52;99172.66;5022805;28;20350;-76
2023/07/10 08:03:01;;;;;;;4.47;2.60;;;;;;;37.61;54.22;99172.78;5032082;28;20267;-78
2023/07/10 08:05:27;;;;;;;5.35;2.60;;;;;;;39.23;51.10;99156.22;5010356;28;20056;-78
2023/07/10 08:07:53;;;;;;;6.28;2.63;;;;;;;41.16;46.92;99168.19;5016844;28;20535;-70
2023/07/10 08:10:18;;;;;;;6.57;2.95;;;;;;;41.90;45.32;99163.88;5005579;28;20125;-72
2023/07/10 08:12:43;;;;;;;5.13;2.70;;;;;;;41.74;45.07;99175.66;5014847;28;20022;-74
2023/07/10 08:15:09;;;;;;;4.80;2.40;;;;;;;41.32;44.66;99176.34;5022194;28;21079;-71
2023/07/10 08:17:34;;;;;;;3.92;2.50;;;;;;;39.09;47.31;99181.50;5021825;28;20364;-71
2023/07/10 08:20:00;;;;;;;8.33;2.53;;;;;;;40.39;47.01;99179.53;5015685;28;20041;-71
2023/07/10 08:22:25;;;;;;;4.47;2.80;;;;;;;39.59;47.27;99171.59;5009039;28;20308;-72
2023/07/10 08:24:50;;;;;;;4.67;2.47;;;;;;;39.09;47.52;99182.31;5010567;28;20021;-71
2023/07/10 08:27:16;;;;;;;5.65;2.38;;;;;;;38.58;49.56;99186.47;5010864;28;20615;-73
2023/07/10 08:29:41;;;;;;;5.23;2.57;;;;;;;38.62;50.35;99185.72;5013605;28;20045;-72
2023/07/10 08:32:07;;;;;;;5.38;2.95;;;;;;;38.99;49.55;99178.16;5013122;28;20293;-72
2023/07/10 08:34:32;;;;;;;5.57;2.58;;;;;;;41.04;46.55;99171.41;5029732;28;20025;-72
2023/07/10 08:36:59;;;;;;;6.88;2.92;;;;;;;42.41;43.43;99165.50;5010949;28;20488;-72
2023/07/10 08:39:25;;;;;;;5.53;2.42;;;;;;;41.35;43.75;99156.50;5010706;28;20029;-74
2023/07/10 08:42:01;;;;;;;5.43;2.70;;;;;;;38.28;48.24;99179.94;5011823;28;20030;-74
2023/07/10 08:44:37;;;;;;;5.97;2.67;;;;;;;35.01;57.12;99177.44;5024957;28;20049;-74
2023/07/10 08:47:14;;;;;;;6.75;2.90;;;;;;;35.27;61.72;99173.34;5012922;28;20053;-74
2023/07/10 08:49:53;;;;;;;5.30;3.00;;;;;;;34.61;65.88;99172.66;5017457;28;20029;-76
2023/07/10 08:52:41;;;;;;;6.07;2.70;;;;;;;34.44;69.94;99172.88;5034305;28;20030;-73
2023/07/10 08:55:11;;;;;;;;;;;;;;;34.08;73.06;99173.72;5005915;28;20116;-72
2023/07/10 08:57:42;;;;;;;8.50;3.40;;;;;;;34.05;73.81;99186.44;5010892;28;19967;-72
2023/07/10 09:00:10;;;;;;;8.43;2.92;;;;;;;34.28;71.12;99180.41;5010704;28;20106;-72
2023/07/10 09:02:43;;;;;;;8.15;2.70;;;;;;;33.93;69.73;99186.44;5021759;28;20034;-72
2023/07/10 09:05:15;;;;;;;7.32;2.83;;;;;;;33.47;71.45;99171.63;5047704;28;20379;-72
2023/07/10 09:07:43;;;;;;;4.90;2.95;;;;;;;32.72;75.64;99192.06;5029566;28;20035;-74
2023/07/10 09:10:18;;;;;;;4.82;2.65;;;;;;;33.39;74.28;99196.59;5010198;28;20022;-71
2023/07/10 09:12:49;;;;;;;4.68;2.55;;;;;;;34.73;68.51;99193.44;5013216;28;20022;-78
2023/07/10 09:15:19;;;;;;;5.13;2.95;;;;;;;35.70;65.93;99199.84;5010385;28;20101;-72
2023/07/10 09:18:03;;;;;;;7.90;3.00;;;;;;;35.82;65.13;99196.97;5013646;28;20030;-72
2023/07/10 09:20:28;;;;;;;6.18;2.80;;;;;;;35.26;67.71;99191.41;5021629;28;20030;-73
2023/07/10 09:22:58;;;;;;;6.00;2.95;;;;;;;34.32;69.76;99184.94;5032048;28;20030;-73
2023/07/10 09:25:24;;;;;;;4.47;3.08;;;;;;;34.02;72.21;99201.19;5032477;28;20121;-75
2023/07/10 09:27:50;;;;;;;8.77;3.60;;;;;;;33.67;72.99;99195.16;5014362;28;20036;-71
2023/07/10 09:30:44;;;;;;;5.05;3.13;;;;;;;34.26;72.83;99195.59;5012239;28;20028;-75
2023/07/10 09:33:10;;;;;;;5.05;2.97;;;;;;;35.35;69.53;99192.06;5012284;28;20044;-75
2023/07/10 09:35:40;;;;;;;5.72;2.60;;;;;;;38.97;58.85;99186.22;5029953;28;20018;-77
2023/07/10 09:38:05;;;;;;;7.05;2.80;;;;;;;40.71;50.29;99178.94;5029042;28;20062;-69
2023/07/10 09:40:49;;;;;;;4.93;2.80;;;;;;;41.15;46.95;99184.44;5006338;28;20029;-71
2023/07/10 09:43:20;;;;;;;5.38;2.40;;;;;;;41.66;46.37;99178.88;5018218;28;20037;-74
2023/07/10 09:45:48;;;;;;;4.13;2.60;;;;;;;41.70;45.30;99183.34;5015061;28;20037;-73
2023/07/10 09:48:16;;;;;;;6.13;2.50;;;;;;;39.45;48.43;99160.09;5012510;28;20036;-73
2023/07/10 09:50:46;;;;;;;5.78;2.80;;;;;;;38.44;50.64;99172.16;5014899;28;20030;-73
2023/07/10 09:53:32;;;;;;;5.90;2.60;;;;;;;38.29;51.80;99178.75;5015134;28;20509;-73
2023/07/10 09:55:58;;;;;;;6.13;3.03;;;;;;;37.52;54.23;99177.88;5026801;28;20483;-73
2023/07/10 09:58:24;;;;;;;4.90;2.97;;;;;;;37.64;56.05;99176.84;5018745;28;20079;-73
2023/07/10 10:00:50;;;;;;;4.15;2.88;;;;;;;38.45;54.89;99182.25;5013727;28;20018;-73
2023/07/10 10:03:24;;;;;;;6.82;2.90;;;;;;;38.28;54.75;99188.41;5012713;28;20340;-73
2023/07/10 10:05:54;;;;;;;6.97;3.05;;;;;;;38.31;53.02;99177.19;5011302;28;20072;-73
2023/07/10 10:08:26;;;;;;;8.13;3.00;;;;;;;40.50;47.93;99180.41;5014418;28;20124;-72
2023/07/10 10:11:06;;;;;;;6.72;2.80;;;;;;;41.10;46.22;99167.78;5002099;28;20022;-73
2023/07/10 10:13:56;;;;;;;5.13;2.90;;;;;;;42.42;43.20;99178.50;5018428;28;20079;-73
2023/07/10 10:16:36;;;;;;;5.47;2.70;;;;;;;42.87;41.16;99160.91;5018805;28;20089;-72
2023/07/10 10:19:10;;;;;;;3.75;2.30;;;;;;;41.60;42.42;99156.56;5015897;28;20030;-73
2023/07/10 10:21:36;;;;;;;6.15;2.60;;;;;;;41.98;42.87;99153.38;5010882;28;20391;-73
2023/07/10 10:24:07;;;;;;;8.43;2.50;;;;;;;43.37;41.21;99168.41;5014631;28;20026;-74
2023/07/10 10:26:40;;;;;;;4.28;2.38;;;;;;;43.98;39.96;99151.69;5029717;28;20032;-73
2023/07/10 10:29:33;;;;;;;5.57;2.88;;;;;;;45.29;38.68;99156.34;5047877;22;20032;-72
2023/07/10 10:32:23;;;;;;;5.22;2.72;;;;;;;46.40;36.81;99151.66;5061661;28;20033;-74
2023/07/10 10:35:14;;;;;;;3.63;2.78;;;;;;;44.89;37.41;99152.41;5057334;28;20033;-73
2023/07/10 10:38:07;;;;;;;4.75;2.78;;;;;;;45.14;37.27;99147.13;5065292;28;20068;-74
2023/07/10 10:41:29;;;;;;;3.88;2.20;;;;;;;44.92;37.17;99160.91;5045332;28;20017;-74
2023/07/10 10:43:58;;;;;;;4.85;2.60;;;;;;;43.85;37.72;99159.13;5025837;28;20069;-72
2023/07/10 10:46:29;;;;;;;3.97;2.28;;;;;;;42.83;39.54;99152.38;5037227;28;20033;-72
2023/07/10 10:49:29;;;;;;;5.90;2.55;;;;;;;41.57;40.36;99151.69;5041724;28;20099;-74
2023/07/10 10:52:01;;;;;;;4.10;2.45;;;;;;;41.95;40.67;99159.84;5037923;28;20041;-73
2023/07/10 10:54:48;;;;;;;11.98;2.83;;;;;;;44.11;38.17;99149.13;5039137;28;20045;-72
2023/07/10 10:57:38;;;;;;;3.72;2.60;;;;;;;45.51;35.63;99156.00;5041503;28;20045;-72
2023/07/10 11:00:20;;;;;;;3.13;2.28;;;;;;;45.84;35.08;99160.81;5043558;28;20055;-72
2023/07/10 11:03:00;;;;;;;9.20;2.50;;;;;;;44.02;36.13;99155.34;5052627;28;20028;-76
2023/07/10 11:05:39;;;;;;;7.07;2.65;;;;;;;42.27;38.53;99145.59;5044865;28;20120;-73
2023/07/10 11:08:18;;;;;;;5.35;2.50;;;;;;;40.86;40.14;99151.47;5050058;28;20033;-75
2023/07/10 11:10:46;;;;;;;4.07;2.40;;;;;;;39.84;41.83;99148.34;5049314;28;20032;-76
2023/07/10 11:13:24;;;;;;;6.15;2.92;;;;;;;39.29;42.85;99151.81;5039117;28;20115;-75
2023/07/10 11:15:50;;;;;;;5.82;3.10;;;;;;;38.70;44.37;99145.00;5041591;28;20082;-75
2023/07/10 11:18:16;;;;;;;7.00;2.80;;;;;;;38.75;44.48;99136.19;5042060;28;20069;-73
2023/07/10 11:20:42;;;;;;;7.95;3.35;;;;;;;38.41;45.05;99138.97;5046347;28;20498;-75
2023/07/10 11:23:27;;;;;;;8.13;3.15;;;;;;;40.51;42.23;99116.03;5039731;28;20033;-74
2023/07/10 11:26:09;;;;;;;5.35;3.08;;;;;;;40.36;43.37;99120.00;5044029;28;20457;-82
2023/07/10 11:28:35;;;;;;;5.60;2.63;;;;;;;41.85;40.63;99109.50;5048075;28;20486;-76
2023/07/10 11:31:18;;;;;;;4.63;2.80;;;;;;;43.09;39.17;99116.06;5050134;28;20035;-76
2023/07/10 11:33:50;;;;;;;3.25;2.70;;;;;;;43.95;37.45;99106.91;5032566;28;20033;-76